sensor_id;sensor_type;location;lat;lon;timestamp;pressure;altitude;pressure_sealevel;temperature;humidity
21433;BME280;18592;49.708;10.900;2023-11-19T00:00:15;98583.16;;;10.19;59.78
21433;BME280;18592;49.708;10.900;2023-11-19T00:02:16;98567.38;;;10.21;59.90
21433;BME280;18592;49.708;10.900;2023-11-19T00:04:18;98555.41;;;10.22;59.71
21433;BME280;18592;49.708;10.900;2023-11-19T00:06:20;98559.78;;;10.23;59.29
21433;BME280;18592;49.708;10.900;2023-11-19T00:08:21;98554.59;;;10.22;59.63
21433;BME280;18592;49.708;10.900;2023-11-19T00:10:23;98556.00;;;10.24;59.37
21433;BME280;18592;49.708;10.900;2023-11-19T00:12:24;98552.19;;;10.25;59.38
21433;BME280;18592;49.708;10.900;2023-11-19T00:14:26;98551.34;;;10.25;59.53
21433;BME280;18592;49.708;10.900;2023-11-19T00:16:28;98555.75;;;10.26;59.54
21433;BME280;18592;49.708;10.900;2023-11-19T00:18:29;98552.19;;;10.25;59.74
21433;BME280;18592;49.708;10.900;2023-11-19T00:20:31;98545.91;;;10.25;59.62
21433;BME280;18592;49.708;10.900;2023-11-19T00:22:33;98541.28;;;10.25;59.48
21433;BME280;18592;49.708;10.900;2023-11-19T00:24:34;98536.66;;;10.26;59.35
21433;BME280;18592;49.708;10.900;2023-11-19T00:26:36;98533.13;;;10.25;59.65
21433;BME280;18592;49.708;10.900;2023-11-19T00:28:37;98534.78;;;10.26;59.48
21433;BME280;18592;49.708;10.900;2023-11-19T00:30:40;98544.59;;;10.27;59.60
21433;BME280;18592;49.708;10.900;2023-11-19T00:32:44;98546.25;;;10.28;59.52
21433;BME280;18592;49.708;10.900;2023-11-19T00:34:47;98544.34;;;10.29;59.25
21433;BME280;18592;49.708;10.900;2023-11-19T00:36:49;98530.16;;;10.27;59.45
21433;BME280;18592;49.708;10.900;2023-11-19T00:38:51;98513.81;;;10.27;59.73
21433;BME280;18592;49.708;10.900;2023-11-19T00:40:54;98512.72;;;10.28;59.51
21433;BME280;18592;49.708;10.900;2023-11-19T00:42:56;98503.16;;;10.25;59.74
21433;BME280;18592;49.708;10.900;2023-11-19T00:44:59;98511.88;;;10.27;59.49
21433;BME280;18592;49.708;10.900;2023-11-19T00:47:03;98501.00;;;10.27;59.77
21433;BME280;18592;49.708;10.900;2023-11-19T00:49:06;98500.75;;;10.29;59.81
21433;BME280;18592;49.708;10.900;2023-11-19T00:51:08;98492.03;;;10.27;59.83
21433;BME280;18592;49.708;10.900;2023-11-19T00:53:09;98495.53;;;10.27;59.47
21433;BME280;18592;49.708;10.900;2023-11-19T00:55:11;98490.09;;;10.27;59.69
21433;BME280;18592;49.708;10.900;2023-11-19T00:57:14;98489.31;;;10.27;59.75
21433;BME280;18592;49.708;10.900;2023-11-19T00:59:15;98499.09;;;10.28;59.62
21433;BME280;18592;49.708;10.900;2023-11-19T01:01:17;98504.31;;;10.29;59.89
21433;BME280;18592;49.708;10.900;2023-11-19T01:03:19;98492.59;;;10.29;59.62
21433;BME280;18592;49.708;10.900;2023-11-19T01:05:20;98498.03;;;10.29;60.03
21433;BME280;18592;49.708;10.900;2023-11-19T01:07:24;98493.41;;;10.29;60.03
21433;BME280;18592;49.708;10.900;2023-11-19T01:09:27;98483.31;;;10.30;59.50
21433;BME280;18592;49.708;10.900;2023-11-19T01:11:29;98485.25;;;10.29;59.90
21433;BME280;18592;49.708;10.900;2023-11-19T01:13:30;98497.78;;;10.30;59.67
21433;BME280;18592;49.708;10.900;2023-11-19T01:15:32;98498.88;;;10.29;60.14
21433;BME280;18592;49.708;10.900;2023-11-19T01:17:34;98501.59;;;10.29;59.88
21433;BME280;18592;49.708;10.900;2023-11-19T01:19:35;98502.41;;;10.30;59.88
21433;BME280;18592;49.708;10.900;2023-11-19T01:21:37;98491.25;;;10.31;59.80
21433;BME280;18592;49.708;10.900;2023-11-19T01:23:38;98485.81;;;10.31;60.03
21433;BME280;18592;49.708;10.900;2023-11-19T01:25:40;98494.22;;;10.30;60.02
21433;BME280;18592;49.708;10.900;2023-11-19T01:27:42;98495.06;;;10.30;59.74
21433;BME280;18592;49.708;10.900;2023-11-19T01:29:43;98500.50;;;10.30;59.71
21433;BME280;18592;49.708;10.900;2023-11-19T01:31:45;98485.25;;;10.29;59.96
21433;BME280;18592;49.708;10.900;2023-11-19T01:33:53;98487.97;;;10.29;59.74
21433;BME280;18592;49.708;10.900;2023-11-19T01:35:54;98476.81;;;10.31;59.60
21433;BME280;18592;49.708;10.900;2023-11-19T01:37:57;98475.75;;;10.32;59.95
21433;BME280;18592;49.708;10.900;2023-11-19T01:39:58;98470.03;;;10.33;59.55
21433;BME280;18592;49.708;10.900;2023-11-19T01:42:00;98466.47;;;10.33;59.64
21433;BME280;18592;49.708;10.900;2023-11-19T01:44:02;98475.47;;;10.33;60.04
21433;BME280;18592;49.708;10.900;2023-11-19T01:46:05;98458.91;;;10.35;59.65
21433;BME280;18592;49.708;10.900;2023-11-19T01:48:07;98448.81;;;10.35;59.65
21433;BME280;18592;49.708;10.900;2023-11-19T01:50:12;98447.47;;;10.38;59.87
21433;BME280;18592;49.708;10.900;2023-11-19T01:52:15;98448.56;;;10.37;59.65
21433;BME280;18592;49.708;10.900;2023-11-19T01:54:16;98450.19;;;10.38;60.01
21433;BME280;18592;49.708;10.900;2023-11-19T01:56:18;98448.31;;;10.38;59.75
21433;BME280;18592;49.708;10.900;2023-11-19T01:58:22;98449.97;;;10.39;59.95
21433;BME280;18592;49.708;10.900;2023-11-19T02:00:24;98436.34;;;10.39;60.04
21433;BME280;18592;49.708;10.900;2023-11-19T02:02:26;98439.06;;;10.39;59.82
21433;BME280;18592;49.708;10.900;2023-11-19T02:04:28;98435.00;;;10.42;59.84
21433;BME280;18592;49.708;10.900;2023-11-19T02:06:32;98438.56;;;10.42;59.53
21433;BME280;18592;49.708;10.900;2023-11-19T02:08:34;98435.59;;;10.44;59.67
21433;BME280;18592;49.708;10.900;2023-11-19T02:10:36;98433.69;;;10.44;59.91
21433;BME280;18592;49.708;10.900;2023-11-19T02:12:40;98449.78;;;10.46;59.76
21433;BME280;18592;49.708;10.900;2023-11-19T02:14:44;98446.22;;;10.45;59.65
21433;BME280;18592;49.708;10.900;2023-11-19T02:16:45;98448.44;;;10.48;59.84
21433;BME280;18592;49.708;10.900;2023-11-19T02:18:47;98446.81;;;10.47;59.59
21433;BME280;18592;49.708;10.900;2023-11-19T02:20:50;98440.25;;;10.48;59.86
21433;BME280;18592;49.708;10.900;2023-11-19T02:22:52;98438.63;;;10.47;59.75
21433;BME280;18592;49.708;10.900;2023-11-19T02:25:00;98447.13;;;10.51;59.76
21433;BME280;18592;49.708;10.900;2023-11-19T02:27:13;98446.28;;;10.50;59.85
21433;BME280;18592;49.708;10.900;2023-11-19T02:29:17;98435.38;;;10.50;59.64
21433;BME280;18592;49.708;10.900;2023-11-19T02:31:18;98440.84;;;10.50;59.88
21433;BME280;18592;49.708;10.900;2023-11-19T02:33:20;98438.94;;;10.51;59.65
21433;BME280;18592;49.708;10.900;2023-11-19T02:35:22;98436.78;;;10.53;60.00
21433;BME280;18592;49.708;10.900;2023-11-19T02:37:24;98427.81;;;10.52;59.74
21433;BME280;18592;49.708;10.900;2023-11-19T02:39:25;98432.97;;;10.54;59.77
21433;BME280;18592;49.708;10.900;2023-11-19T02:41:28;98435.72;;;10.54;59.75
21433;BME280;18592;49.708;10.900;2023-11-19T02:43:31;98433.81;;;10.54;59.70
21433;BME280;18592;49.708;10.900;2023-11-19T02:45:34;98434.66;;;10.55;59.99
21433;BME280;18592;49.708;10.900;2023-11-19T02:47:37;98427.28;;;10.55;59.66
21433;BME280;18592;49.708;10.900;2023-11-19T02:49:38;98428.09;;;10.56;59.87
21433;BME280;18592;49.708;10.900;2023-11-19T02:51:40;98410.69;;;10.57;60.15
21433;BME280;18592;49.708;10.900;2023-11-19T02:53:41;98406.84;;;10.58;59.72
21433;BME280;18592;49.708;10.900;2023-11-19T02:55:45;98393.22;;;10.58;59.87
21433;BME280;18592;49.708;10.900;2023-11-19T02:57:51;98390.50;;;10.58;60.11
21433;BME280;18592;49.708;10.900;2023-11-19T02:59:54;98384.00;;;10.59;60.13
21433;BME280;18592;49.708;10.900;2023-11-19T03:01:57;98381.53;;;10.57;59.98
21433;BME280;18592;49.708;10.900;2023-11-19T03:04:01;98374.16;;;10.58;60.21
21433;BME280;18592;49.708;10.900;2023-11-19T03:06:05;98363.00;;;10.59;59.99
21433;BME280;18592;49.708;10.900;2023-11-19T03:08:07;98376.63;;;10.59;59.91
21433;BME280;18592;49.708;10.900;2023-11-19T03:10:10;98374.75;;;10.60;60.18
21433;BME280;18592;49.708;10.900;2023-11-19T03:12:14;98358.41;;;10.60;60.21
21433;BME280;18592;49.708;10.900;2023-11-19T03:14:16;98336.81;;;10.58;60.07
21433;BME280;18592;49.708;10.900;2023-11-19T03:16:18;98311.47;;;10.58;60.25
21433;BME280;18592;49.708;10.900;2023-11-19T03:18:20;98310.66;;;10.57;60.32
21433;BME280;18592;49.708;10.900;2023-11-19T03:20:22;98274.41;;;10.57;60.27
21433;BME280;18592;49.708;10.900;2023-11-19T03:22:25;98279.31;;;10.55;60.30
21433;BME280;18592;49.708;10.900;2023-11-19T03:24:26;98266.75;;;10.54;60.72
21433;BME280;18592;49.708;10.900;2023-11-19T03:26:28;98283.94;;;10.54;60.96
21433;BME280;18592;49.708;10.900;2023-11-19T03:28:29;98308.44;;;10.54;60.54
21433;BME280;18592;49.708;10.900;2023-11-19T03:30:32;98305.72;;;10.54;60.58
21433;BME280;18592;49.708;10.900;2023-11-19T03:32:35;98299.44;;;10.54;60.58
21433;BME280;18592;49.708;10.900;2023-11-19T03:34:37;98294.81;;;10.54;60.73
21433;BME280;18592;49.708;10.900;2023-11-19T03:36:38;98298.09;;;10.56;60.59
21433;BME280;18592;49.708;10.900;2023-11-19T03:38:41;98306.28;;;10.56;60.68
21433;BME280;18592;49.708;10.900;2023-11-19T03:40:43;98298.94;;;10.57;60.51
21433;BME280;18592;49.708;10.900;2023-11-19T03:42:48;98300.31;;;10.59;60.40
21433;BME280;18592;49.708;10.900;2023-11-19T03:44:49;98290.25;;;10.60;60.57
21433;BME280;18592;49.708;10.900;2023-11-19T03:46:53;98300.31;;;10.59;60.21
21433;BME280;18592;49.708;10.900;2023-11-19T03:48:54;98293.78;;;10.60;60.17
21433;BME280;18592;49.708;10.900;2023-11-19T03:50:56;98290.81;;;10.62;60.21
21433;BME280;18592;49.708;10.900;2023-11-19T03:52:58;98280.75;;;10.62;60.32
21433;BME280;18592;49.708;10.900;2023-11-19T03:54:59;98276.69;;;10.65;60.41
21433;BME280;18592;49.708;10.900;2023-11-19T03:57:02;98267.41;;;10.66;60.26
21433;BME280;18592;49.708;10.900;2023-11-19T03:59:05;98269.28;;;10.65;60.51
21433;BME280;18592;49.708;10.900;2023-11-19T04:01:11;98264.13;;;10.64;60.93
21433;BME280;18592;49.708;10.900;2023-11-19T04:03:14;98273.69;;;10.66;60.59
21433;BME280;18592;49.708;10.900;2023-11-19T04:05:16;98290.59;;;10.68;60.71
21433;BME280;18592;49.708;10.900;2023-11-19T04:07:20;98288.69;;;10.69;60.78
21433;BME280;18592;49.708;10.900;2023-11-19T04:09:22;98300.72;;;10.73;60.62
21433;BME280;18592;49.708;10.900;2023-11-19T04:11:23;98295.25;;;10.73;60.63
21433;BME280;18592;49.708;10.900;2023-11-19T04:13:25;98302.09;;;10.75;60.69
21433;BME280;18592;49.708;10.900;2023-11-19T04:15:26;98293.94;;;10.75;60.56
21433;BME280;18592;49.708;10.900;2023-11-19T04:17:28;98281.94;;;10.76;60.56
21433;BME280;18592;49.708;10.900;2023-11-19T04:19:30;98289.06;;;10.77;60.43
21433;BME280;18592;49.708;10.900;2023-11-19T04:21:34;98296.13;;;10.78;59.83
21433;BME280;18592;49.708;10.900;2023-11-19T04:23:35;98287.72;;;10.80;60.34
21433;BME280;18592;49.708;10.900;2023-11-19T04:25:37;98292.06;;;10.81;60.46
21433;BME280;18592;49.708;10.900;2023-11-19T04:27:39;98301.63;;;10.83;60.41
21433;BME280;18592;49.708;10.900;2023-11-19T04:29:43;98299.47;;;10.85;60.38
21433;BME280;18592;49.708;10.900;2023-11-19T04:31:44;98297.56;;;10.86;60.37
21433;BME280;18592;49.708;10.900;2023-11-19T04:33:46;98285.84;;;10.85;60.42
21433;BME280;18592;49.708;10.900;2023-11-19T04:35:48;98276.31;;;10.88;60.51
21433;BME280;18592;49.708;10.900;2023-11-19T04:37:49;98276.06;;;10.90;60.29
21433;BME280;18592;49.708;10.900;2023-11-19T04:39:51;98280.44;;;10.91;60.34
21433;BME280;18592;49.708;10.900;2023-11-19T04:41:53;98275.56;;;10.93;60.05
21433;BME280;18592;49.708;10.900;2023-11-19T04:43:54;98282.91;;;10.92;60.40
21433;BME280;18592;49.708;10.900;2023-11-19T04:45:56;98282.63;;;10.94;60.67
21433;BME280;18592;49.708;10.900;2023-11-19T04:47:58;98285.38;;;10.94;60.34
21433;BME280;18592;49.708;10.900;2023-11-19T04:50:00;98284.03;;;10.96;60.26
21433;BME280;18592;49.708;10.900;2023-11-19T04:52:01;98282.13;;;10.97;60.53
21433;BME280;18592;49.708;10.900;2023-11-19T04:54:04;98281.31;;;10.96;60.87
21433;BME280;18592;49.708;10.900;2023-11-19T04:56:09;98283.50;;;10.99;60.54
21433;BME280;18592;49.708;10.900;2023-11-19T04:58:11;98273.97;;;11.02;60.32
21433;BME280;18592;49.708;10.900;2023-11-19T05:00:13;98265.53;;;11.03;60.42
21433;BME280;18592;49.708;10.900;2023-11-19T05:02:18;98262.00;;;11.03;60.54
21433;BME280;18592;49.708;10.900;2023-11-19T05:04:20;98261.72;;;11.04;60.52
21433;BME280;18592;49.708;10.900;2023-11-19T05:06:21;98256.84;;;11.06;60.29
21433;BME280;18592;49.708;10.900;2023-11-19T05:08:23;98249.47;;;11.07;60.55
21433;BME280;18592;49.708;10.900;2023-11-19T05:10:25;98248.41;;;11.08;60.33
21433;BME280;18592;49.708;10.900;2023-11-19T05:12:26;98252.22;;;11.07;60.78
21433;BME280;18592;49.708;10.900;2023-11-19T05:14:28;98249.47;;;11.07;60.61
21433;BME280;18592;49.708;10.900;2023-11-19T05:16:29;98247.31;;;11.09;60.64
21433;BME280;18592;49.708;10.900;2023-11-19T05:18:31;98244.56;;;11.09;60.78
21433;BME280;18592;49.708;10.900;2023-11-19T05:20:33;98235.31;;;11.10;60.62
21433;BME280;18592;49.708;10.900;2023-11-19T05:22:34;98237.22;;;11.09;60.89
21433;BME280;18592;49.708;10.900;2023-11-19T05:24:36;98237.78;;;11.11;60.92
21433;BME280;18592;49.708;10.900;2023-11-19T05:26:38;98233.16;;;11.12;60.89
21433;BME280;18592;49.708;10.900;2023-11-19T05:28:39;98233.69;;;11.14;60.85
21433;BME280;18592;49.708;10.900;2023-11-19T05:30:41;98229.34;;;11.13;60.88
21433;BME280;18592;49.708;10.900;2023-11-19T05:32:42;98227.41;;;11.13;60.92
21433;BME280;18592;49.708;10.900;2023-11-19T05:34:44;98235.09;;;11.16;60.79
21433;BME280;18592;49.708;10.900;2023-11-19T05:36:49;98241.38;;;11.17;60.53
21433;BME280;18592;49.708;10.900;2023-11-19T05:38:51;98240.03;;;11.19;60.80
21433;BME280;18592;49.708;10.900;2023-11-19T05:40:52;98235.94;;;11.22;60.67
21433;BME280;18592;49.708;10.900;2023-11-19T05:42:54;98237.59;;;11.23;60.70
21433;BME280;18592;49.708;10.900;2023-11-19T05:44:55;98236.50;;;11.24;60.62
21433;BME280;18592;49.708;10.900;2023-11-19T05:46:57;98232.41;;;11.26;60.71
21433;BME280;18592;49.708;10.900;2023-11-19T05:48:59;98233.25;;;11.27;60.73
21433;BME280;18592;49.708;10.900;2023-11-19T05:51:00;98229.44;;;11.28;60.93
21433;BME280;18592;49.708;10.900;2023-11-19T05:53:02;98221.00;;;11.29;61.26
21433;BME280;18592;49.708;10.900;2023-11-19T05:55:07;98218.81;;;11.31;61.20
21433;BME280;18592;49.708;10.900;2023-11-19T05:57:10;98222.09;;;11.33;61.20
21433;BME280;18592;49.708;10.900;2023-11-19T05:59:13;98222.91;;;11.34;61.97
21433;BME280;18592;49.708;10.900;2023-11-19T06:01:18;98228.13;;;11.35;61.24
21433;BME280;18592;49.708;10.900;2023-11-19T06:03:20;98243.94;;;11.38;61.40
21433;BME280;18592;49.708;10.900;2023-11-19T06:05:23;98227.31;;;11.40;61.85
21433;BME280;18592;49.708;10.900;2023-11-19T06:07:24;98230.59;;;11.42;61.51
21433;BME280;18592;49.708;10.900;2023-11-19T06:09:26;98234.44;;;11.46;61.65
21433;BME280;18592;49.708;10.900;2023-11-19T06:11:28;98233.38;;;11.47;61.67
21433;BME280;18592;49.708;10.900;2023-11-19T06:13:30;98239.66;;;11.47;61.61
21433;BME280;18592;49.708;10.900;2023-11-19T06:15:33;98233.66;;;11.51;61.92
21433;BME280;18592;49.708;10.900;2023-11-19T06:17:34;98230.66;;;11.52;62.05
21433;BME280;18592;49.708;10.900;2023-11-19T06:19:37;98234.78;;;11.55;61.80
21433;BME280;18592;49.708;10.900;2023-11-19T06:21:39;98234.25;;;11.58;62.15
21433;BME280;18592;49.708;10.900;2023-11-19T06:23:41;98227.69;;;11.59;62.03
21433;BME280;18592;49.708;10.900;2023-11-19T06:25:43;98224.44;;;11.62;61.96
21433;BME280;18592;49.708;10.900;2023-11-19T06:27:45;98216.81;;;11.64;61.64
21433;BME280;18592;49.708;10.900;2023-11-19T06:29:46;98216.25;;;11.67;61.95
21433;BME280;18592;49.708;10.900;2023-11-19T06:31:48;98215.19;;;11.68;62.14
21433;BME280;18592;49.708;10.900;2023-11-19T06:33:50;98213.03;;;11.70;62.04
21433;BME280;18592;49.708;10.900;2023-11-19T06:35:51;98208.94;;;11.72;62.04
21433;BME280;18592;49.708;10.900;2023-11-19T06:37:53;98217.69;;;11.74;62.05
21433;BME280;18592;49.708;10.900;2023-11-19T06:39:54;98222.91;;;11.76;62.25
21433;BME280;18592;49.708;10.900;2023-11-19T06:41:56;98220.44;;;11.79;62.45
21433;BME280;18592;49.708;10.900;2023-11-19T06:43:58;98217.47;;;11.81;62.47
21433;BME280;18592;49.708;10.900;2023-11-19T06:45:59;98216.94;;;11.84;62.39
21433;BME280;18592;49.708;10.900;2023-11-19T06:48:01;98214.47;;;11.87;62.38
21433;BME280;18592;49.708;10.900;2023-11-19T06:50:05;98218.03;;;11.88;62.26
21433;BME280;18592;49.708;10.900;2023-11-19T06:52:08;98219.41;;;11.90;62.52
21433;BME280;18592;49.708;10.900;2023-11-19T06:54:10;98216.97;;;11.94;62.50
21433;BME280;18592;49.708;10.900;2023-11-19T06:56:22;98222.97;;;11.96;62.82
21433;BME280;18592;49.708;10.900;2023-11-19T06:58:24;98219.97;;;11.97;62.62
21433;BME280;18592;49.708;10.900;2023-11-19T07:00:25;98218.88;;;11.98;62.57
21433;BME280;18592;49.708;10.900;2023-11-19T07:02:27;98219.44;;;12.00;62.80
21433;BME280;18592;49.708;10.900;2023-11-19T07:04:28;98221.88;;;12.02;62.76
21433;BME280;18592;49.708;10.900;2023-11-19T07:06:30;98218.63;;;12.05;62.66
21433;BME280;18592;49.708;10.900;2023-11-19T07:08:35;98212.63;;;12.08;63.03
21433;BME280;18592;49.708;10.900;2023-11-19T07:10:38;98211.28;;;12.10;62.74
21433;BME280;18592;49.708;10.900;2023-11-19T07:12:39;98205.53;;;12.12;62.85
21433;BME280;18592;49.708;10.900;2023-11-19T07:14:41;98219.47;;;12.16;63.22
21433;BME280;18592;49.708;10.900;2023-11-19T07:16:44;98210.75;;;12.19;63.18
21433;BME280;18592;49.708;10.900;2023-11-19T07:18:46;98226.63;;;12.22;63.71
21433;BME280;18592;49.708;10.900;2023-11-19T07:20:51;98227.16;;;12.24;63.54
21433;BME280;18592;49.708;10.900;2023-11-19T07:22:52;98237.56;;;12.27;63.30
21433;BME280;18592;49.708;10.900;2023-11-19T07:24:58;98238.94;;;12.29;63.25
21433;BME280;18592;49.708;10.900;2023-11-19T07:27:00;98238.13;;;12.34;63.57
21433;BME280;18592;49.708;10.900;2023-11-19T07:29:02;98237.59;;;12.37;63.40
21433;BME280;18592;49.708;10.900;2023-11-19T07:31:04;98233.47;;;12.39;64.04
21433;BME280;18592;49.708;10.900;2023-11-19T07:33:06;98238.38;;;12.42;63.43
21433;BME280;18592;49.708;10.900;2023-11-19T07:35:08;98242.25;;;12.46;63.46
21433;BME280;18592;49.708;10.900;2023-11-19T07:37:10;98240.06;;;12.48;63.54
21433;BME280;18592;49.708;10.900;2023-11-19T07:39:12;98256.47;;;12.53;63.69
21433;BME280;18592;49.708;10.900;2023-11-19T07:41:15;98245.00;;;12.56;63.80
21433;BME280;18592;49.708;10.900;2023-11-19T07:43:17;98240.88;;;12.59;63.61
21433;BME280;18592;49.708;10.900;2023-11-19T07:45:19;98248.28;;;12.63;64.09
21433;BME280;18592;49.708;10.900;2023-11-19T07:47:20;98254.81;;;12.67;63.84
21433;BME280;18592;49.708;10.900;2023-11-19T07:49:24;98248.00;;;12.70;63.81
21433;BME280;18592;49.708;10.900;2023-11-19T07:51:25;98251.31;;;12.72;63.86
21433;BME280;18592;49.708;10.900;2023-11-19T07:53:27;98245.84;;;12.77;63.94
21433;BME280;18592;49.708;10.900;2023-11-19T07:55:29;98248.56;;;12.82;64.32
21433;BME280;18592;49.708;10.900;2023-11-19T07:57:33;98249.13;;;12.84;64.07
21433;BME280;18592;49.708;10.900;2023-11-19T07:59:34;98248.56;;;12.87;63.88
21433;BME280;18592;49.708;10.900;2023-11-19T08:01:36;98245.28;;;12.90;64.09
21433;BME280;18592;49.708;10.900;2023-11-19T08:03:37;98247.47;;;12.93;64.19
21433;BME280;18592;49.708;10.900;2023-11-19T08:05:39;98245.84;;;12.97;64.04
21433;BME280;18592;49.708;10.900;2023-11-19T08:07:41;98246.38;;;12.99;64.40
21433;BME280;18592;49.708;10.900;2023-11-19T08:09:49;98252.94;;;13.03;64.17
21433;BME280;18592;49.708;10.900;2023-11-19T08:11:51;98260.88;;;13.05;64.07
21433;BME280;18592;49.708;10.900;2023-11-19T08:13:53;98242.31;;;13.07;64.09
21433;BME280;18592;49.708;10.900;2023-11-19T08:16:06;98243.38;;;13.11;64.09
21433;BME280;18592;49.708;10.900;2023-11-19T08:18:09;98247.47;;;13.13;64.28
21433;BME280;18592;49.708;10.900;2023-11-19T08:20:11;98236.00;;;13.16;64.28
21433;BME280;18592;49.708;10.900;2023-11-19T08:22:13;98235.72;;;13.18;64.28
21433;BME280;18592;49.708;10.900;2023-11-19T08:24:16;98233.25;;;13.21;64.36
21433;BME280;18592;49.708;10.900;2023-11-19T08:26:32;98231.63;;;13.25;64.90
21433;BME280;18592;49.708;10.900;2023-11-19T08:28:38;98232.16;;;13.27;64.25
21433;BME280;18592;49.708;10.900;2023-11-19T08:30:40;98236.78;;;13.32;64.47
21433;BME280;18592;49.708;10.900;2023-11-19T08:32:42;98234.59;;;13.34;64.22
21433;BME280;18592;49.708;10.900;2023-11-19T08:34:43;98229.41;;;13.38;64.64
21433;BME280;18592;49.708;10.900;2023-11-19T08:36:45;98226.13;;;13.41;64.75
21433;BME280;18592;49.708;10.900;2023-11-19T08:38:46;98229.38;;;13.43;64.52
21433;BME280;18592;49.708;10.900;2023-11-19T08:40:49;98231.56;;;13.46;64.33
21433;BME280;18592;49.708;10.900;2023-11-19T08:42:51;98227.47;;;13.48;64.37
21433;BME280;18592;49.708;10.900;2023-11-19T08:44:53;98233.19;;;13.52;64.36
21433;BME280;18592;49.708;10.900;2023-11-19T08:46:56;98224.41;;;13.55;64.54
21433;BME280;18592;49.708;10.900;2023-11-19T08:48:57;98228.22;;;13.59;64.68
21433;BME280;18592;49.708;10.900;2023-11-19T08:50:59;98229.88;;;13.60;64.49
21433;BME280;18592;49.708;10.900;2023-11-19T08:53:01;98233.16;;;13.62;64.39
21433;BME280;18592;49.708;10.900;2023-11-19T08:55:04;98233.44;;;13.65;64.29
21433;BME280;18592;49.708;10.900;2023-11-19T08:57:06;98244.94;;;13.67;64.34
21433;BME280;18592;49.708;10.900;2023-11-19T08:59:10;98239.97;;;13.69;64.62
21433;BME280;18592;49.708;10.900;2023-11-19T09:01:11;98232.31;;;13.71;64.35
21433;BME280;18592;49.708;10.900;2023-11-19T09:03:13;98239.97;;;13.74;64.30
21433;BME280;18592;49.708;10.900;2023-11-19T09:05:15;98235.03;;;13.76;64.65
21433;BME280;18592;49.708;10.900;2023-11-19T09:07:16;98243.50;;;13.80;64.50
21433;BME280;18592;49.708;10.900;2023-11-19T09:09:18;98245.69;;;13.83;64.31
21433;BME280;18592;49.708;10.900;2023-11-19T09:11:19;98243.78;;;13.83;64.71
21433;BME280;18592;49.708;10.900;2023-11-19T09:13:21;98247.59;;;13.87;64.48
21433;BME280;18592;49.708;10.900;2023-11-19T09:15:23;98244.56;;;13.89;64.44
21433;BME280;18592;49.708;10.900;2023-11-19T09:17:24;98254.16;;;13.91;64.61
21433;BME280;18592;49.708;10.900;2023-11-19T09:19:26;98250.03;;;13.94;64.54
21433;BME280;18592;49.708;10.900;2023-11-19T09:21:28;98254.94;;;13.97;64.43
21433;BME280;18592;49.708;10.900;2023-11-19T09:23:32;98251.66;;;14.00;64.58
21433;BME280;18592;49.708;10.900;2023-11-19T09:25:40;98258.50;;;14.02;64.78
21433;BME280;18592;49.708;10.900;2023-11-19T09:27:47;98272.19;;;14.08;65.13
21433;BME280;18592;49.708;10.900;2023-11-19T09:29:49;98274.06;;;14.12;64.84
21433;BME280;18592;49.708;10.900;2023-11-19T09:31:56;98278.16;;;14.15;64.90
21433;BME280;18592;49.708;10.900;2023-11-19T09:33:57;98270.22;;;14.18;64.93
21433;BME280;18592;49.708;10.900;2023-11-19T09:35:59;98273.75;;;14.24;64.88
21433;BME280;18592;49.708;10.900;2023-11-19T09:38:01;98272.38;;;14.26;65.14
21433;BME280;18592;49.708;10.900;2023-11-19T09:40:06;98271.81;;;14.29;64.97
21433;BME280;18592;49.708;10.900;2023-11-19T09:42:10;98280.84;;;14.35;65.27
21433;BME280;18592;49.708;10.900;2023-11-19T09:44:12;98270.16;;;14.38;64.87
21433;BME280;18592;49.708;10.900;2023-11-19T09:46:21;98281.09;;;14.43;65.36
21433;BME280;18592;49.708;10.900;2023-11-19T09:48:34;98281.34;;;14.47;65.07
21433;BME280;18592;49.708;10.900;2023-11-19T09:50:40;98271.75;;;14.49;65.31
21433;BME280;18592;49.708;10.900;2023-11-19T09:52:43;98256.34;;;14.53;65.02
21433;BME280;18592;49.708;10.900;2023-11-19T09:54:44;98256.63;;;14.57;65.12
21433;BME280;18592;49.708;10.900;2023-11-19T09:56:52;98247.00;;;14.59;65.34
21433;BME280;18592;49.708;10.900;2023-11-19T09:59:01;98246.41;;;14.62;64.70
21433;BME280;18592;49.708;10.900;2023-11-19T10:01:10;98243.91;;;14.66;65.09
21433;BME280;18592;49.708;10.900;2023-11-19T10:03:17;98235.34;;;14.73;65.11
21433;BME280;18592;49.708;10.900;2023-11-19T10:05:19;98225.72;;;14.75;65.12
21433;BME280;18592;49.708;10.900;2023-11-19T10:07:22;98236.66;;;14.80;65.05
21433;BME280;18592;49.708;10.900;2023-11-19T10:09:27;98222.38;;;14.83;65.07
21433;BME280;18592;49.708;10.900;2023-11-19T10:11:29;98239.94;;;14.87;64.72
21433;BME280;18592;49.708;10.900;2023-11-19T10:13:31;98240.16;;;14.91;65.05
21433;BME280;18592;49.708;10.900;2023-11-19T10:15:36;98241.50;;;14.93;64.83
21433;BME280;18592;49.708;10.900;2023-11-19T10:17:37;98237.38;;;14.96;65.02
21433;BME280;18592;49.708;10.900;2023-11-19T10:19:42;98232.97;;;15.00;64.97
21433;BME280;18592;49.708;10.900;2023-11-19T10:21:45;98237.06;;;15.02;65.08
21433;BME280;18592;49.708;10.900;2023-11-19T10:25:52;98222.13;;;15.13;65.12
21433;BME280;18592;49.708;10.900;2023-11-19T10:27:56;98224.81;;;15.18;65.35
21433;BME280;18592;49.708;10.900;2023-11-19T10:30:00;98227.25;;;15.25;65.24
21433;BME280;18592;49.708;10.900;2023-11-19T10:32:07;98222.28;;;15.27;65.02
21433;BME280;18592;49.708;10.900;2023-11-19T10:34:27;98214.00;;;15.32;65.20
21433;BME280;18592;49.708;10.900;2023-11-19T10:36:39;98221.66;;;15.35;65.21
21433;BME280;18592;49.708;10.900;2023-11-19T10:38:55;98212.81;;;15.38;65.09
21433;BME280;18592;49.708;10.900;2023-11-19T10:40:57;98221.81;;;15.44;64.70
21433;BME280;18592;49.708;10.900;2023-11-19T10:43:02;98231.44;;;15.46;64.59